createdAt,value
2019-05-06T00:01:40.619Z,2.43
2019-05-06T00:04:10.892Z,3.00
2019-05-06T00:06:41.169Z,3.20
2019-05-06T00:09:11.979Z,3.10
2019-05-06T00:11:42.224Z,2.80
2019-05-06T00:14:14.145Z,2.83
2019-05-06T00:16:44.454Z,3.10
2019-05-06T00:19:14.771Z,2.53
2019-05-06T00:21:44.992Z,2.70
2019-05-06T00:24:15.320Z,2.50
2019-05-06T00:27:04.942Z,2.60
2019-05-06T00:29:35.254Z,2.73
2019-05-06T00:32:05.902Z,2.70
2019-05-06T00:34:37.548Z,2.67
2019-05-06T00:37:07.796Z,3.33
2019-05-06T00:39:45.412Z,2.80
2019-05-06T00:42:40.288Z,2.77
2019-05-06T00:45:11.100Z,2.47
2019-05-06T00:47:41.358Z,2.77
2019-05-06T00:50:14.224Z,2.47
2019-05-06T00:52:44.705Z,2.53
2019-05-06T00:55:15.144Z,2.17
2019-05-06T00:57:45.835Z,2.33
2019-05-06T01:00:18.929Z,2.50
2019-05-06T01:02:49.240Z,2.80
2019-05-06T01:05:19.818Z,3.00
2019-05-06T01:07:50.373Z,2.80
2019-05-06T01:10:20.784Z,2.53
2019-05-06T01:13:04.202Z,2.67
2019-05-06T01:15:35.656Z,2.70
2019-05-06T01:18:06.352Z,3.43
2019-05-06T01:20:36.977Z,3.23
2019-05-06T01:23:07.205Z,2.87
2019-05-06T01:25:37.804Z,3.17
2019-05-06T01:28:08.049Z,2.83
2019-05-06T01:30:38.527Z,3.07
2019-05-06T01:33:08.812Z,3.60
2019-05-06T01:35:39.091Z,3.43
2019-05-06T01:38:35.364Z,2.93
2019-05-06T01:41:24.373Z,3.03
2019-05-06T01:43:57.492Z,3.63
2019-05-06T01:46:27.892Z,3.63
2019-05-06T01:48:58.168Z,3.20
2019-05-06T01:51:34.588Z,2.80
2019-05-06T01:54:04.139Z,3.33
2019-05-06T01:56:40.344Z,3.63
2019-05-06T01:59:18.603Z,3.23
2019-05-06T02:01:58.112Z,3.30
2019-05-06T02:04:20.788Z,3.00
2019-05-06T02:06:51.097Z,3.27
2019-05-06T02:09:21.344Z,3.13
2019-05-06T02:11:53.511Z,2.80
2019-05-06T02:14:24.623Z,3.00
2019-05-06T02:19:37.000Z,2.77
2019-05-06T02:22:13.623Z,3.00
2019-05-06T02:24:53.773Z,3.00
2019-05-06T02:27:24.744Z,3.00
2019-05-06T02:30:05.665Z,2.80
2019-05-06T02:32:55.696Z,2.67
2019-05-06T02:35:34.974Z,3.03
2019-05-06T02:38:07.072Z,2.87
2019-05-06T02:40:37.333Z,2.73
2019-05-06T02:43:07.616Z,2.80
2019-05-06T02:45:37.902Z,2.33
2019-05-06T02:48:14.293Z,3.17
2019-05-06T02:51:15.526Z,3.17
2019-05-06T02:53:45.842Z,2.53
2019-05-06T02:56:16.051Z,3.20
2019-05-06T02:58:46.338Z,3.00
2019-05-06T03:01:17.514Z,3.23
2019-05-06T03:03:47.789Z,2.73
2019-05-06T03:06:18.067Z,2.90
2019-05-06T03:08:48.341Z,3.60
2019-05-06T03:11:18.617Z,3.10
2019-05-06T03:13:48.884Z,3.47
2019-05-06T03:16:19.062Z,3.33
2019-05-06T03:18:49.273Z,2.77
2019-05-06T03:21:50.688Z,2.73
2019-05-06T03:24:48.745Z,3.07
2019-05-06T03:27:18.952Z,3.17
2019-05-06T03:29:49.176Z,3.00
2019-05-06T03:32:24.753Z,2.90
2019-05-06T03:35:15.935Z,2.87
2019-05-06T03:37:24.353Z,2.83
2019-05-06T03:39:55.600Z,2.90
2019-05-06T03:42:26.240Z,2.57
2019-05-06T03:45:03.953Z,3.00
2019-05-06T03:47:44.899Z,3.33
2019-05-06T03:50:15.133Z,3.03
2019-05-06T03:52:45.773Z,3.03
2019-05-06T03:55:15.997Z,2.90
2019-05-06T03:57:47.676Z,3.13
2019-05-06T04:00:18.634Z,2.90
2019-05-06T04:02:48.903Z,3.20
2019-05-06T04:05:19.115Z,3.30
2019-05-06T04:07:52.762Z,3.00
2019-05-06T04:10:22.880Z,3.30
2019-05-06T04:12:54.382Z,3.37
2019-05-06T04:15:27.381Z,3.10
2019-05-06T04:18:03.642Z,3.10
2019-05-06T04:20:46.865Z,3.03
2019-05-06T04:23:43.707Z,2.67
2019-05-06T04:26:23.960Z,3.47
2019-05-06T04:28:55.351Z,3.23
2019-05-06T04:31:26.570Z,3.57
2019-05-06T04:34:12.363Z,3.33
2019-05-06T04:36:29.702Z,2.90
2019-05-06T04:39:04.255Z,3.37
2019-05-06T04:41:34.550Z,3.10
2019-05-06T04:44:05.306Z,2.70
2019-05-06T04:46:35.682Z,2.43
2019-05-06T04:49:10.343Z,3.00
2019-05-06T04:51:37.868Z,2.87
2019-05-06T04:54:08.102Z,2.87
2019-05-06T04:56:38.314Z,4.30
2019-05-06T04:59:08.728Z,4.27
2019-05-06T05:01:39.167Z,2.70
2019-05-06T05:04:24.430Z,3.33
2019-05-06T05:06:43.216Z,3.23
2019-05-06T05:09:17.066Z,3.67
2019-05-06T05:11:53.496Z,3.27
2019-05-06T05:14:48.875Z,3.30
2019-05-06T05:17:56.862Z,4.67
2019-05-06T05:20:36.993Z,3.70
2019-05-06T05:22:58.998Z,3.65
2019-05-06T05:25:29.456Z,3.23
2019-05-06T05:28:02.050Z,3.57
2019-05-06T05:30:32.813Z,3.30
2019-05-06T05:33:03.924Z,2.77
2019-05-06T05:35:34.212Z,3.03
2019-05-06T05:38:04.682Z,2.87
2019-05-06T05:40:35.349Z,3.10
2019-05-06T05:43:32.859Z,3.47
2019-05-06T05:46:03.798Z,3.50
2019-05-06T05:48:59.725Z,2.90
2019-05-06T05:51:32.016Z,3.40
2019-05-06T05:54:02.387Z,3.10
2019-05-06T05:56:33.101Z,2.83
2019-05-06T05:59:03.648Z,3.40
2019-05-06T06:01:35.452Z,3.13
2019-05-06T19:24:25.526Z,2.77
2019-05-06T19:27:02.175Z,2.40
2019-05-06T19:29:33.373Z,4.10
2019-05-06T19:32:03.693Z,3.10
2019-05-06T19:34:35.330Z,2.70
2019-05-06T19:37:05.599Z,2.47
2019-05-06T19:39:35.887Z,1.90
2019-05-06T19:42:07.041Z,2.43
2019-05-06T19:44:37.313Z,1.80
2019-05-06T19:47:07.609Z,2.00
2019-05-06T19:49:37.902Z,1.80
2019-05-06T19:52:08.464Z,1.50
2019-05-06T19:54:38.742Z,1.30
2019-05-06T19:57:09.014Z,1.43
2019-05-06T19:59:39.548Z,2.07
2019-05-06T20:02:09.854Z,1.40
2019-05-06T20:04:44.013Z,1.27
2019-05-06T20:07:35.533Z,1.00
2019-05-06T20:10:26.013Z,1.53
2019-05-06T20:13:02.617Z,1.40
2019-05-06T20:15:34.858Z,1.90
2019-05-06T20:18:06.296Z,1.70
2019-05-06T20:20:36.697Z,1.93
2019-05-06T20:23:07.264Z,1.60
2019-05-06T20:25:37.532Z,1.63
2019-05-06T20:28:07.788Z,1.93
2019-05-06T20:30:37.997Z,1.90
2019-05-06T20:33:08.635Z,1.93
2019-05-06T20:35:39.218Z,1.93
2019-05-06T20:38:12.151Z,2.27
2019-05-06T20:40:43.083Z,1.93
2019-05-06T20:43:20.459Z,2.07
2019-05-06T20:45:47.272Z,1.70
2019-05-06T20:48:17.927Z,1.77
2019-05-06T20:50:48.536Z,1.97
2019-05-06T20:53:18.869Z,2.00
2019-05-06T20:55:49.058Z,1.57
2019-05-06T20:58:19.333Z,1.83
2019-05-06T21:00:49.578Z,2.27
2019-05-06T21:03:21.956Z,2.30
2019-05-06T21:05:52.393Z,1.97
2019-05-06T21:08:22.654Z,2.23
2019-05-06T21:10:53.082Z,2.10
2019-05-06T21:13:31.924Z,2.33
2019-05-06T21:15:56.601Z,1.90
2019-05-06T21:18:26.791Z,2.07
2019-05-06T21:20:57.059Z,2.40
2019-05-06T21:23:27.325Z,2.17
2019-05-06T21:25:57.546Z,2.00
2019-05-06T21:28:27.901Z,2.43
2019-05-06T21:30:58.447Z,1.80
2019-05-06T21:33:28.701Z,2.00
2019-05-06T21:35:58.996Z,1.73
2019-05-06T21:38:29.622Z,2.20
2019-05-06T21:41:01.869Z,2.10
2019-05-06T21:43:43.722Z,2.00
2019-05-06T21:46:03.864Z,2.45
2019-05-06T21:48:34.161Z,1.97
2019-05-06T21:51:04.446Z,2.07
2019-05-06T21:53:34.764Z,2.53
2019-05-06T21:56:05.035Z,2.10
2019-05-06T21:58:35.234Z,3.13
2019-05-06T22:01:07.688Z,2.73
2019-05-06T22:03:39.114Z,2.07
2019-05-06T22:06:09.453Z,3.40
2019-05-06T22:08:39.730Z,2.53
2019-05-06T22:11:10.070Z,2.50
2019-05-06T22:13:42.389Z,2.30
2019-05-06T22:16:12.651Z,2.80
2019-05-06T22:18:45.465Z,2.93
2019-05-06T22:21:23.678Z,3.07
2019-05-06T22:24:12.125Z,3.50
2019-05-06T22:26:43.120Z,3.27
2019-05-06T22:29:13.611Z,3.80
2019-05-06T22:31:43.869Z,3.37
2019-05-06T22:34:15.810Z,3.73
2019-05-06T22:36:47.753Z,3.30
2019-05-06T22:39:18.094Z,3.13
2019-05-06T22:41:48.389Z,3.33
2019-05-06T22:44:19.027Z,3.13
2019-05-06T22:46:49.269Z,3.03
2019-05-06T22:49:19.546Z,3.00
2019-05-06T22:51:52.195Z,2.80
2019-05-06T22:54:24.539Z,3.00
2019-05-06T22:56:54.985Z,3.40
2019-05-06T22:59:25.318Z,2.67
2019-05-06T23:02:06.149Z,3.63
2019-05-06T23:04:37.043Z,3.00
2019-05-06T23:07:07.274Z,3.57
2019-05-06T23:09:37.452Z,3.43
2019-05-06T23:12:08.084Z,3.40
2019-05-06T23:14:38.599Z,3.43
2019-05-06T23:17:08.986Z,3.63
2019-05-06T23:19:39.190Z,3.70
2019-05-06T23:22:11.985Z,3.43
2019-05-06T23:24:41.802Z,3.83
2019-05-06T23:27:12.654Z,3.40
2019-05-06T23:29:45.057Z,4.00
2019-05-06T23:32:15.322Z,4.10
2019-05-06T23:34:45.600Z,3.60
2019-05-06T23:37:23.634Z,3.20
2019-05-06T23:40:42.830Z,3.77
2019-05-06T23:43:49.187Z,3.47
2019-05-06T23:46:55.514Z,3.77
2019-05-06T23:50:03.406Z,3.50
2019-05-06T23:53:12.323Z,3.50
2019-05-06T23:56:19.715Z,3.03
2019-05-06T23:58:52.251Z,3.50
